Time;durP1;ratioP1;P1;durP2;ratioP2;P2;SDS_P1;SDS_P2;PMS_P1;PMS_P2;Temp;Humidity;BMP_temperature;BMP_pressure;BME280_temperature;BME280_humidity;BME280_pressure;Samples;Min_cycle;Max_cycle;Signal;HPM_P1;HPM_P2
2021/07/09 00:01:59;;;;;;;;;3.00;3.00;;;;;25.76;41.33;101926.09;5066212;28;51159;-49
2021/07/09 00:04:26;;;;;;;;;2.75;2.75;;;;;25.76;41.27;101919.72;5063558;28;51157;-48
2021/07/09 00:06:53;;;;;;;;;5.50;4.00;;;;;25.75;41.33;101921.63;5073913;28;52115;-47
2021/07/09 00:09:19;;;;;;;;;4.00;3.50;;;;;25.75;41.15;101924.41;5068241;28;51150;-47
2021/07/09 00:11:47;;;;;;;;;5.50;5.00;;;;;25.74;41.31;101925.50;5064276;28;51027;-47
2021/07/09 00:14:14;;;;;;;;;4.00;4.00;;;;;25.75;41.35;101923.56;5058305;28;51243;-47
2021/07/09 00:16:41;;;;;;;;;6.50;3.50;;;;;25.75;41.35;101921.63;5056001;28;52091;-48
2021/07/09 00:19:07;;;;;;;;;5.50;4.25;;;;;25.76;41.39;101930.81;5057834;28;51126;-47
2021/07/09 00:21:34;;;;;;;;;4.75;4.75;;;;;25.74;41.67;101928.28;5071841;28;51325;-49
2021/07/09 00:24:02;;;;;;;;;4.50;4.25;;;;;25.76;41.34;101933.59;5075195;28;50905;-50
2021/07/09 00:26:28;;;;;;;;;5.75;5.75;;;;;25.76;41.77;101928.03;5062634;28;51147;-48
2021/07/09 00:28:54;;;;;;;;;4.25;4.25;;;;;25.75;41.29;101927.19;5058351;28;51122;-48
2021/07/09 00:31:19;;;;;;;;;4.25;4.00;;;;;25.74;41.50;101919.94;5056820;28;51323;-47
2021/07/09 00:33:44;;;;;;;;;7.00;5.75;;;;;25.76;41.74;101922.47;5058606;28;50953;-50
2021/07/09 00:36:10;;;;;;;;;5.00;5.00;;;;;25.75;41.78;101921.63;5057561;28;51157;-48
2021/07/09 00:38:35;;;;;;;;;5.25;5.25;;;;;25.74;41.45;101914.38;5075269;28;51101;-47
2021/07/09 00:41:00;;;;;;;;;4.25;4.00;;;;;25.74;41.71;101919.06;5072471;28;51294;-48
2021/07/09 00:43:26;;;;;;;;;4.75;4.00;;;;;25.74;41.62;101919.06;5071558;28;50976;-48
2021/07/09 00:45:51;;;;;;;;;4.00;4.00;;;;;25.73;41.75;101920.16;5067035;28;51169;-50
2021/07/09 00:48:17;;;;;;;;;8.00;6.00;;;;;25.73;41.45;101928.47;5059869;28;50992;-53
2021/07/09 00:50:43;;;;;;;;;7.00;5.50;;;;;25.72;41.67;101933.19;5079189;28;51514;-47
2021/07/09 00:53:08;;;;;;;;;5.00;5.00;;;;;25.72;41.69;101922.06;5067703;28;51099;-49
2021/07/09 00:55:34;;;;;;;;;6.00;5.50;;;;;25.72;41.61;101927.63;5074596;28;51914;-53
2021/07/09 00:58:01;;;;;;;;;5.75;4.50;;;;;25.71;41.71;101925.94;5074883;28;51114;-51
2021/07/09 01:00:28;;;;;;;;;6.75;5.00;;;;;25.71;41.65;101930.63;5072163;28;51194;-49
2021/07/09 01:02:54;;;;;;;;;5.75;4.75;;;;;25.70;41.59;101929.78;5069628;28;51625;-47
2021/07/09 01:05:19;;;;;;;;;6.50;4.50;;;;;25.69;41.60;101928.06;5072908;28;51122;-48
2021/07/09 01:07:45;;;;;;;;;5.00;5.00;;;;;25.68;41.70;101940.25;5066765;28;51017;-51
2021/07/09 01:10:18;;;;;;;;;6.00;4.50;;;;;25.68;41.72;101931.91;5060847;28;50964;-50
2021/07/09 01:12:43;;;;;;;;;5.50;4.00;;;;;25.68;41.61;101937.47;5048718;28;52427;-47
2021/07/09 01:15:12;;;;;;;;;5.00;5.00;;;;;25.68;41.81;101937.47;5060389;28;51965;-49
2021/07/09 01:17:38;;;;;;;;;4.25;4.25;;;;;25.67;41.69;101933.00;5067068;28;51217;-54
2021/07/09 01:20:07;;;;;;;;;4.50;4.50;;;;;25.66;41.71;101934.09;5055382;28;51133;-51
2021/07/09 01:22:33;;;;;;;;;5.75;5.00;;;;;25.65;41.83;101932.41;5064200;28;51113;-51
2021/07/09 01:24:59;;;;;;;;;5.25;3.75;;;;;25.65;41.76;101932.41;5068377;28;51335;-49
2021/07/09 01:27:24;;;;;;;;;7.50;5.25;;;;;25.63;41.78;101935.38;5057455;28;51188;-47
2021/07/09 01:29:50;;;;;;;;;8.00;5.00;;;;;25.62;41.40;101941.16;5071307;28;51378;-50
2021/07/09 01:32:16;;;;;;;;;6.25;5.50;;;;;25.61;41.82;101940.31;5063060;28;51145;-48
2021/07/09 01:34:41;;;;;;;;;6.25;6.25;;;;;25.60;41.65;101938.63;5067896;28;51339;-49
2021/07/09 01:37:12;;;;;;;;;5.50;5.25;;;;;25.61;41.79;101936.69;5069014;28;51218;-46
2021/07/09 01:39:37;;;;;;;;;4.75;4.75;;;;;25.61;41.75;101939.47;5070701;28;51819;-48
2021/07/09 01:42:03;;;;;;;;;4.50;3.25;;;;;25.60;41.84;101944.16;5062495;28;51096;-51
2021/07/09 01:44:29;;;;;;;;;4.25;4.25;;;;;25.60;41.64;101941.38;5069910;28;52768;-51
2021/07/09 01:46:55;;;;;;;;;5.25;5.25;;;;;25.59;42.01;101934.16;5068645;28;51494;-52
2021/07/09 01:49:20;;;;;;;;;5.25;5.25;;;;;25.60;41.86;101935.84;5062775;28;51376;-49
2021/07/09 01:51:46;;;;;;;;;4.50;4.50;;;;;25.59;41.91;101934.16;5061795;28;51110;-53
2021/07/09 01:54:11;;;;;;;;;6.25;5.00;;;;;25.59;41.90;101936.94;5063222;28;51853;-53
2021/07/09 01:56:37;;;;;;;;;4.00;4.00;;;;;25.59;41.75;101938.84;5065021;28;51323;-50
2021/07/09 01:59:02;;;;;;;;;6.00;3.75;;;;;25.59;41.92;101933.31;5063780;28;51112;-52
2021/07/09 02:01:27;;;;;;;;;7.75;6.75;;;;;25.59;42.07;101924.97;5068804;28;51041;-51
2021/07/09 02:03:53;;;;;;;;;8.00;7.00;;;;;25.59;41.92;101928.59;5075835;28;51849;-52
2021/07/09 02:06:19;;;;;;;;;4.25;4.25;;;;;25.59;41.97;101928.59;5073540;28;51118;-52
2021/07/09 02:08:44;;;;;;;;;8.00;5.25;;;;;25.58;41.84;101918.59;5070618;28;51090;-53
2021/07/09 02:11:10;;;;;;;;;5.00;5.00;;;;;25.59;42.08;101930.53;5075577;28;51359;-53
2021/07/09 02:13:36;;;;;;;;;5.25;3.50;;;;;25.58;42.06;101928.84;5061284;28;50937;-51
2021/07/09 02:16:01;;;;;;;;;4.25;3.25;;;;;25.58;42.04;101926.91;5058102;28;51064;-52
2021/07/09 02:18:26;;;;;;;;;6.25;5.25;;;;;25.58;42.04;101926.06;5061609;28;52222;-51
2021/07/09 02:20:52;;;;;;;;;5.50;4.00;;;;;25.58;41.94;101928.84;5071869;28;51416;-51
2021/07/09 02:23:17;;;;;;;;;6.00;6.00;;;;;25.58;42.21;101920.50;5065589;28;51011;-53
2021/07/09 02:25:43;;;;;;;;;5.00;5.00;;;;;25.58;42.24;101920.50;5064562;28;51173;-52
2021/07/09 02:28:09;;;;;;;;;4.75;4.75;;;;;25.58;42.18;101920.50;5069282;28;51234;-52
2021/07/09 02:30:35;;;;;;;;;6.75;5.75;;;;;25.57;42.14;101919.66;5072555;28;51547;-53
2021/07/09 02:33:01;;;;;;;;;8.75;5.25;;;;;25.58;41.85;101914.97;5070815;28;51891;-52
2021/07/09 02:35:32;;;;;;;;;6.00;5.25;;;;;25.57;42.20;101916.88;5069953;28;51581;-51
2021/07/09 02:37:57;;;;;;;;;4.00;4.00;;;;;25.57;42.25;101913.28;5076465;28;51888;-52
2021/07/09 02:40:26;;;;;;;;;5.00;5.00;;;;;25.58;42.28;101921.34;5065683;28;51401;-52
2021/07/09 02:42:53;;;;;;;;;5.25;4.00;;;;;25.57;42.09;101914.13;5069573;28;51656;-51
2021/07/09 02:45:20;;;;;;;;;7.25;7.25;;;;;25.57;42.08;101916.03;5070122;28;51398;-50
2021/07/09 02:47:46;;;;;;;;;6.25;4.75;;;;;25.57;42.48;101913.28;5071967;28;50983;-53
2021/07/09 02:50:15;;;;;;;;;4.50;4.50;;;;;25.56;42.36;101912.44;5072529;28;50906;-52
2021/07/09 02:52:40;;;;;;;;;4.25;3.25;;;;;25.56;42.40;101908.81;5073440;28;51091;-50
2021/07/09 02:55:08;;;;;;;;;5.25;3.75;;;;;25.57;42.08;101913.28;5062075;28;50958;-52
2021/07/09 02:57:34;;;;;;;;;5.50;5.50;;;;;25.56;42.30;101908.81;5074690;28;51127;-53
2021/07/09 02:59:59;;;;;;;;;5.00;4.75;;;;;25.56;42.21;101911.56;5064280;28;51147;-53
2021/07/09 03:02:26;;;;;;;;;5.25;5.25;;;;;25.56;42.21;101908.81;5064107;28;50997;-52
2021/07/09 03:04:52;;;;;;;;;4.25;4.25;;;;;25.57;42.29;101910.50;5070642;28;51420;-50
2021/07/09 03:07:17;;;;;;;;;5.50;5.50;;;;;25.55;42.24;101901.56;5071365;28;51165;-51
2021/07/09 03:09:43;;;;;;;;;3.50;3.50;;;;;25.55;42.18;101902.41;5059926;28;51130;-53
2021/07/09 03:12:09;;;;;;;;;4.00;4.00;;;;;25.55;42.11;101904.34;5069345;28;51035;-50
2021/07/09 03:14:34;;;;;;;;;5.25;5.25;;;;;25.55;42.19;101905.19;5072465;28;52093;-54
2021/07/09 03:17:00;;;;;;;;;5.75;5.75;;;;;25.54;42.25;101902.66;5073240;28;51116;-52
2021/07/09 03:19:25;;;;;;;;;3.50;3.00;;;;;25.54;42.25;101897.94;5059964;28;51344;-51
2021/07/09 03:21:51;;;;;;;;;6.00;4.75;;;;;25.53;42.35;101901.81;5056852;28;57527;-53
2021/07/09 03:24:16;;;;;;;;;6.00;5.00;;;;;25.54;42.06;101894.31;5057106;28;50973;-50
2021/07/09 03:26:42;;;;;;;;;4.50;3.75;;;;;25.55;42.09;101890.47;5056912;28;51174;-51
2021/07/09 03:29:07;;;;;;;;;10.00;5.00;;;;;25.55;42.49;101890.47;5067926;28;51038;-52
2021/07/09 03:31:32;;;;;;;;;5.75;5.75;;;;;25.54;42.10;101897.09;5069444;28;51036;-54
2021/07/09 03:33:58;;;;;;;;;4.50;4.00;;;;;25.54;42.40;101886.00;5046451;28;51044;-53
2021/07/09 03:36:25;;;;;;;;;7.50;6.75;;;;;25.54;42.25;101883.22;5075543;28;51241;-51
2021/07/09 03:38:55;;;;;;;;;5.00;4.25;;;;;25.54;42.63;101886.00;5067422;28;51335;-52
2021/07/09 03:41:20;;;;;;;;;5.50;5.25;;;;;25.52;42.41;101886.19;5060680;28;51273;-54
2021/07/09 03:43:46;;;;;;;;;6.50;6.00;;;;;25.52;42.65;101888.97;5056939;28;51162;-52
2021/07/09 03:46:12;;;;;;;;;5.00;5.00;;;;;25.53;42.28;101899.03;5056712;28;51162;-53
2021/07/09 03:48:38;;;;;;;;;5.00;5.00;;;;;25.50;42.25;101888.38;5062394;28;51080;-52
2021/07/09 03:51:05;;;;;;;;;8.25;5.00;;;;;25.52;42.22;101902.00;5057715;28;52687;-51
2021/07/09 03:53:30;;;;;;;;;5.00;5.00;;;;;25.52;42.60;101900.06;5055395;28;51385;-51
2021/07/09 03:55:55;;;;;;;;;6.50;5.25;;;;;25.51;42.30;101903.09;5056188;28;51018;-52
2021/07/09 03:58:21;;;;;;;;;5.00;5.00;;;;;25.50;42.22;101902.25;5062122;28;50932;-51
2021/07/09 04:00:46;;;;;;;;;5.25;5.25;;;;;25.51;42.50;101897.53;5065229;28;51897;-48
2021/07/09 04:03:11;;;;;;;;;6.75;6.00;;;;;25.49;42.48;101895.00;5047766;28;51211;-50
2021/07/09 04:05:37;;;;;;;;;7.25;5.00;;;;;25.50;42.26;101898.63;5071227;28;51073;-50
2021/07/09 04:08:02;;;;;;;;;5.00;5.00;;;;;25.49;42.29;101902.47;5067041;28;51199;-52
2021/07/09 04:10:28;;;;;;;;;5.75;4.00;;;;;25.49;42.05;101897.78;5068475;28;51717;-51
2021/07/09 04:12:53;;;;;;;;;6.00;6.00;;;;;25.49;42.13;101899.69;5066409;28;51063;-51
2021/07/09 04:15:20;;;;;;;;;6.00;5.00;;;;;25.49;42.51;101896.94;5075704;28;50983;-50
2021/07/09 04:17:45;;;;;;;;;5.00;5.00;;;;;25.48;42.64;101898.84;5074002;28;51111;-52
2021/07/09 04:20:11;;;;;;;;;5.50;5.50;;;;;25.49;42.46;101899.69;5062694;28;51243;-50
2021/07/09 04:22:37;;;;;;;;;10.00;7.25;;;;;25.47;42.32;101894.38;5062397;28;50988;-51
2021/07/09 04:25:04;;;;;;;;;5.50;5.50;;;;;25.47;42.68;101896.31;5074348;28;51753;-51
2021/07/09 04:27:30;;;;;;;;;9.00;6.25;;;;;25.47;42.51;101896.31;5073980;28;50917;-53
2021/07/09 04:29:55;;;;;;;;;6.00;4.00;;;;;25.47;42.38;101893.53;5063808;28;51702;-52
2021/07/09 04:32:20;;;;;;;;;6.00;5.00;;;;;25.46;42.49;101898.25;5063987;28;55412;-51
2021/07/09 04:34:46;;;;;;;;;8.00;6.75;;;;;25.45;42.61;101907.66;5075789;28;51072;-49
2021/07/09 04:37:11;;;;;;;;;5.25;4.25;;;;;25.46;42.47;101912.13;5075370;28;51187;-51
2021/07/09 04:39:38;;;;;;;;;6.00;6.00;;;;;25.45;42.51;101907.66;5057415;28;51339;-52
2021/07/09 04:42:05;;;;;;;;;7.25;6.25;;;;;25.46;42.42;101911.28;5068618;28;51023;-53
2021/07/09 04:44:30;;;;;;;;;5.00;4.00;;;;;25.45;42.60;101912.34;5072247;28;51527;-52
2021/07/09 04:46:56;;;;;;;;;7.75;5.75;;;;;25.45;42.43;101904.03;5065710;28;51774;-58
2021/07/09 04:49:21;;;;;;;;;6.25;6.25;;;;;25.45;42.61;101920.66;5061861;28;51634;-51
2021/07/09 04:51:47;;;;;;;;;7.50;6.75;;;;;25.44;42.71;101918.97;5066567;28;51024;-52
2021/07/09 04:54:12;;;;;;;;;10.00;5.25;;;;;25.44;42.43;101914.28;5059245;28;51155;-53
2021/07/09 04:56:37;;;;;;;;;9.00;5.75;;;;;25.42;42.27;101915.56;5055405;28;51027;-52
2021/07/09 04:59:03;;;;;;;;;7.25;5.25;;;;;25.42;42.30;101918.34;5056802;28;51131;-49
2021/07/09 05:01:28;;;;;;;;;8.75;5.25;;;;;25.40;42.34;101912.19;5060154;28;51116;-51
2021/07/09 05:03:53;;;;;;;;;7.75;7.25;;;;;25.39;42.49;101916.88;5064371;28;51301;-52
2021/07/09 05:06:18;;;;;;;;;8.25;7.00;;;;;25.36;42.38;101917.34;5062811;28;51274;-50
2021/07/09 05:08:44;;;;;;;;;6.75;6.25;;;;;25.36;42.42;101910.94;5058912;28;51845;-52
2021/07/09 05:11:09;;;;;;;;;7.75;7.00;;;;;25.34;42.38;101908.41;5063440;28;51237;-50
2021/07/09 05:13:38;;;;;;;;;12.00;8.25;;;;;25.33;42.52;101920.59;5063100;28;51283;-49
2021/07/09 05:16:05;;;;;;;;;6.75;6.75;;;;;25.31;42.38;101915.25;5066653;28;51233;-51
2021/07/09 05:18:30;;;;;;;;;6.00;6.00;;;;;25.29;42.62;101917.41;5056342;28;52059;-53
2021/07/09 05:20:55;;;;;;;;;9.00;7.25;;;;;25.28;42.47;101921.25;5055636;28;51084;-49
2021/07/09 05:23:21;;;;;;;;;6.50;6.50;;;;;25.26;42.40;101923.41;5053861;28;51138;-51
2021/07/09 05:25:46;;;;;;;;;8.00;8.00;;;;;25.26;42.36;101928.97;5068281;28;51399;-50
2021/07/09 05:28:11;;;;;;;;;7.25;6.50;;;;;25.25;42.40;101924.50;5067782;28;51665;-49
2021/07/09 05:30:37;;;;;;;;;10.75;9.50;;;;;25.25;42.56;101926.41;5061628;28;51158;-48
2021/07/09 05:33:02;;;;;;;;;7.25;6.00;;;;;25.24;42.72;101930.28;5067132;28;51250;-58
2021/07/09 05:35:28;;;;;;;;;9.75;6.25;;;;;25.24;42.70;101927.50;5069766;28;52182;-58
2021/07/09 05:37:54;;;;;;;;;10.50;5.75;;;;;25.25;42.58;101934.75;5062774;28;51223;-48
2021/07/09 05:40:20;;;;;;;;;6.50;6.50;;;;;25.24;42.92;101931.13;5065023;28;50971;-50
2021/07/09 05:42:45;;;;;;;;;9.00;6.50;;;;;25.25;42.85;101931.97;5067205;28;51208;-50
2021/07/09 05:45:11;;;;;;;;;13.25;8.75;;;;;25.24;42.71;101936.66;5063890;28;51023;-51
2021/07/09 05:47:38;;;;;;;;;8.00;8.00;;;;;25.24;42.90;101931.13;5067048;28;51704;-47
2021/07/09 05:50:04;;;;;;;;;10.75;4.75;;;;;25.23;42.98;101939.66;5070375;28;51194;-49
2021/07/09 05:52:29;;;;;;;;;8.75;7.00;;;;;25.22;42.98;101933.28;5070637;28;51572;-47
2021/07/09 05:54:54;;;;;;;;;9.25;7.00;;;;;25.23;43.26;101940.53;5070091;28;51141;-54
2021/07/09 05:57:20;;;;;;;;;6.00;6.00;;;;;25.22;43.23;101938.81;5060351;28;51303;-48
2021/07/09 05:59:45;;;;;;;;;7.50;5.50;;;;;25.23;43.41;101937.75;5063017;28;51057;-50
2021/07/09 06:02:10;;;;;;;;;11.25;6.25;;;;;25.23;43.40;101934.97;5059239;28;51085;-50
2021/07/09 06:04:36;;;;;;;;;7.25;6.75;;;;;25.24;43.93;101947.75;5066394;28;51082;-46
2021/07/09 06:07:01;;;;;;;;;8.00;6.25;;;;;25.24;43.84;101933.03;5062385;28;54722;-53
2021/07/09 06:09:26;;;;;;;;;7.25;6.25;;;;;25.26;44.17;101937.28;5064537;28;50959;-53
2021/07/09 06:11:52;;;;;;;;;7.50;6.00;;;;;25.28;44.33;101934.28;5041651;28;51167;-52
2021/07/09 06:14:17;;;;;;;;;5.50;2.50;;;;;25.29;44.32;101945.13;5063883;28;51535;-55
2021/07/09 06:16:45;;;;;;;;;8.00;7.50;;;;;25.31;44.56;101939.34;5059875;28;52115;-52
2021/07/09 06:19:10;;;;;;;;;9.00;9.00;;;;;25.32;44.70;101943.81;5057712;28;51262;-53
2021/07/09 06:21:35;;;;;;;;;6.50;5.75;;;;;25.33;44.80;101946.41;5058853;28;51310;-52
2021/07/09 06:24:01;;;;;;;;;11.25;6.50;;;;;25.35;44.57;101939.75;5065807;28;51706;-54
2021/07/09 06:26:26;;;;;;;;;9.00;5.50;;;;;25.36;44.71;101945.06;5075382;28;51835;-50
2021/07/09 06:28:51;;;;;;;;;8.25;7.00;;;;;25.37;44.79;101940.38;5062435;28;51204;-50
2021/07/09 06:31:17;;;;;;;;;8.25;6.00;;;;;25.39;44.82;101947.38;5062098;28;51106;-50
2021/07/09 06:33:43;;;;;;;;;8.25;6.75;;;;;25.39;44.88;101946.53;5065121;28;51383;-52
2021/07/09 06:36:08;;;;;;;;;8.25;7.50;;;;;25.40;44.69;101951.00;5060736;28;51891;-52
2021/07/09 06:38:33;;;;;;;;;9.50;8.25;;;;;25.41;44.63;101952.69;5056741;28;51177;-51
2021/07/09 06:40:59;;;;;;;;;8.25;8.00;;;;;25.42;44.99;101957.16;5043257;28;51257;-50
2021/07/09 06:43:24;;;;;;;;;7.00;6.75;;;;;25.42;45.03;101966.34;5062319;28;52586;-53
2021/07/09 06:45:49;;;;;;;;;6.50;6.50;;;;;25.43;44.79;101956.97;5060297;28;51778;-53
2021/07/09 06:48:15;;;;;;;;;8.25;5.50;;;;;25.43;44.60;101962.50;5056750;28;51466;-50
2021/07/09 06:50:40;;;;;;;;;10.50;7.25;;;;;25.44;44.60;101957.81;5063825;28;52486;-52
2021/07/09 06:53:06;;;;;;;;;9.75;7.75;;;;;25.46;44.87;101963.97;5059310;28;51702;-52
2021/07/09 06:55:32;;;;;;;;;12.25;8.00;;;;;25.46;44.75;101961.19;5056297;28;51830;-50
2021/07/09 06:57:57;;;;;;;;;10.00;8.50;;;;;25.46;44.76;101959.28;5061138;28;51425;-49
2021/07/09 07:00:23;;;;;;;;;11.00;8.25;;;;;25.46;44.86;101966.75;5057534;28;51724;-48
2021/07/09 07:02:49;;;;;;;;;8.25;8.00;;;;;25.46;44.74;101959.28;5059985;27;51485;-50
2021/07/09 07:05:16;;;;;;;;;8.25;7.00;;;;;25.48;44.67;101959.03;5057463;27;51841;-52
2021/07/09 07:07:42;;;;;;;;;7.00;6.75;;;;;25.49;44.85;101967.13;5060372;28;51239;-50
2021/07/09 07:10:09;;;;;;;;;10.75;8.75;;;;;25.51;45.01;101969.66;5068858;28;51322;-50
2021/07/09 07:12:36;;;;;;;;;8.00;6.25;;;;;25.53;44.88;101970.28;5060125;28;51264;-53
2021/07/09 07:15:03;;;;;;;;;11.00;9.00;;;;;25.53;44.83;101962.84;5056660;28;51918;-53
2021/07/09 07:17:28;;;;;;;;;11.00;9.00;;;;;25.55;44.76;101969.00;5039601;28;52416;-51
2021/07/09 07:19:53;;;;;;;;;11.25;9.75;;;;;25.56;45.06;101972.63;5058604;28;51240;-53
2021/07/09 07:22:19;;;;;;;;;10.25;6.50;;;;;25.58;44.83;101970.44;5055683;28;51904;-52
2021/07/09 07:24:48;;;;;;;;;12.25;7.25;;;;;25.57;44.67;101966.84;5057003;28;51931;-49
2021/07/09 07:27:14;;;;;;;;;6.50;6.00;;;;;25.57;44.38;101964.06;5056127;27;52718;-51
2021/07/09 07:29:39;;;;;;;;;10.25;7.00;;;;;25.59;44.88;101966.59;5064619;28;51394;-52
2021/07/09 07:32:05;;;;;;;;;8.50;7.25;;;;;25.60;45.21;101962.75;5058118;28;51757;-47
2021/07/09 07:34:30;;;;;;;;;9.00;6.50;;;;;25.60;44.81;101960.81;5056421;27;51310;-46
2021/07/09 07:36:55;;;;;;;;;13.25;8.25;;;;;25.61;45.06;101970.00;5060431;28;51851;-50
2021/07/09 07:39:21;;;;;;;;;11.00;8.25;;;;;25.62;44.76;101957.81;5064700;28;51288;-52
2021/07/09 07:41:46;;;;;;;;;9.75;8.00;;;;;25.62;45.12;101964.19;5055478;28;51684;-51
2021/07/09 07:44:11;;;;;;;;;7.00;6.50;;;;;25.64;44.86;101969.53;5059776;28;51973;-48
2021/07/09 07:46:36;;;;;;;;;12.50;10.25;;;;;25.66;45.05;101970.16;5056483;28;51847;-51
2021/07/09 07:49:02;;;;;;;;;13.00;9.75;;;;;25.65;44.81;101967.63;5059574;28;51753;-46
2021/07/09 07:51:27;;;;;;;;;12.00;10.25;;;;;25.65;44.70;101960.13;5058711;28;51322;-49
2021/07/09 07:53:54;;;;;;;;;12.00;10.25;;;;;25.65;44.56;101962.91;5055191;28;51197;-51
2021/07/09 07:56:20;;;;;;;;;10.50;9.00;;;;;25.65;44.39;101962.91;5056618;28;51171;-51
2021/07/09 07:58:45;;;;;;;;;11.50;9.00;;;;;25.65;44.63;101964.84;5057663;28;51245;-51
2021/07/09 08:01:13;;;;;;;;;10.25;9.50;;;;;25.64;44.47;101966.78;5057863;28;51194;-51
2021/07/09 08:03:38;;;;;;;;;12.25;9.00;;;;;25.64;44.35;101958.44;5057552;28;51403;-53
2021/07/09 08:06:05;;;;;;;;;14.25;10.75;;;;;25.63;44.45;101960.34;5057737;28;51267;-51
2021/07/09 08:08:31;;;;;;;;;8.50;7.50;;;;;25.64;44.34;101966.78;5065667;28;51585;-50
2021/07/09 08:10:57;;;;;;;;;11.50;11.50;;;;;25.63;43.95;101956.72;5067315;28;51071;-47
2021/07/09 08:13:22;;;;;;;;;14.25;11.25;;;;;25.63;43.99;101962.28;5069868;28;51181;-51
2021/07/09 08:15:48;;;;;;;;;14.25;12.50;;;;;25.63;44.01;101962.28;5070626;27;51190;-52
2021/07/09 08:18:13;;;;;;;;;13.25;11.00;;;;;25.63;43.84;101960.34;5073419;28;51043;-50
2021/07/09 08:20:43;;;;;;;;;9.25;8.25;;;;;25.63;43.58;101957.56;5071490;28;51510;-50
2021/07/09 08:23:09;;;;;;;;;8.25;7.75;;;;;25.63;43.71;101956.72;5074523;28;51163;-46
2021/07/09 08:25:35;;;;;;;;;11.00;9.50;;;;;25.62;43.87;101953.09;5074585;28;51153;-50
2021/07/09 08:28:00;;;;;;;;;15.00;11.25;;;;;25.62;43.63;101949.47;5075026;28;50996;-51
2021/07/09 08:30:25;;;;;;;;;7.25;6.75;;;;;25.61;43.63;101948.63;5069517;28;51360;-49
2021/07/09 08:32:51;;;;;;;;;10.00;9.00;;;;;25.60;43.46;101944.16;5070143;28;51856;-53
2021/07/09 08:35:16;;;;;;;;;12.00;10.00;;;;;25.60;43.45;101949.72;5074587;28;52593;-50
2021/07/09 08:37:42;;;;;;;;;9.75;9.75;;;;;25.58;43.19;101943.56;5073375;28;51529;-50
2021/07/09 08:40:08;;;;;;;;;10.50;9.75;;;;;25.56;43.10;101945.72;5069754;28;51262;-48
2021/07/09 08:42:34;;;;;;;;;10.00;8.00;;;;;25.54;42.74;101941.50;5073334;28;52085;-51
2021/07/09 08:44:59;;;;;;;;;9.75;9.00;;;;;25.54;42.52;101941.50;5074126;28;51213;-49
2021/07/09 08:47:28;;;;;;;;;10.00;6.50;;;;;25.52;42.75;101938.06;5073603;28;51297;-51
2021/07/09 08:49:54;;;;;;;;;8.50;6.25;;;;;25.50;42.25;101934.69;5070763;28;50991;-46
2021/07/09 08:52:19;;;;;;;;;5.75;5.50;;;;;25.49;42.50;101936.59;5074155;28;51837;-49
2021/07/09 08:54:45;;;;;;;;;6.25;6.25;;;;;25.47;42.30;101936.00;5074227;28;51194;-47
2021/07/09 08:57:10;;;;;;;;;7.50;7.50;;;;;25.46;42.30;101936.22;5074452;28;51086;-49
2021/07/09 08:59:36;;;;;;;;;9.25;7.25;;;;;25.44;42.39;101936.47;5074315;28;51054;-50
2021/07/09 09:02:03;;;;;;;;;7.00;7.00;;;;;25.43;42.21;101932.00;5074726;27;51100;-47
2021/07/09 09:04:30;;;;;;;;;9.00;8.00;;;;;25.41;42.12;101931.34;5074408;28;51161;-46
2021/07/09 09:07:01;;;;;;;;;7.75;7.75;;;;;25.41;42.09;101936.06;5074238;28;51083;-45
2021/07/09 09:09:27;;;;;;;;;8.00;6.00;;;;;25.39;42.14;101939.06;5073698;28;51214;-49
2021/07/09 09:12:19;;;;;;;;;5.50;5.50;;;;;25.39;41.78;101932.66;5072741;28;51355;-48
2021/07/09 09:14:46;;;;;;;;;6.50;6.50;;;;;25.37;41.69;101934.84;5061456;28;51397;-47
2021/07/09 09:17:29;;;;;;;;;7.00;7.00;;;;;25.35;41.91;101931.44;5074725;28;51053;-50
2021/07/09 09:20:15;;;;;;;;;8.75;7.50;;;;;25.34;41.78;101933.38;5074744;28;51213;-50
2021/07/09 09:22:53;;;;;;;;;7.00;6.50;;;;;25.33;41.86;101937.22;5071920;28;52083;-50
2021/07/09 09:25:25;;;;;;;;;6.00;6.00;;;;;25.32;41.66;101941.03;5073677;28;51047;-50
2021/07/09 09:27:58;;;;;;;;;8.25;7.25;;;;;25.31;41.95;101942.13;5071840;28;51115;-50
2021/07/09 09:30:23;;;;;;;;;7.75;7.75;;;;;25.30;41.78;101932.97;5073380;28;50918;-48
2021/07/09 09:32:50;;;;;;;;;6.25;5.25;;;;;25.29;41.79;101938.75;5074002;28;50992;-49
2021/07/09 09:35:24;;;;;;;;;9.00;8.25;;;;;25.29;41.78;101939.59;5073952;28;51420;-46
2021/07/09 09:37:52;;;;;;;;;11.75;8.00;;;;;25.28;41.96;101937.03;5070765;28;51313;-48
2021/07/09 09:40:18;;;;;;;;;2.00;2.00;;;;;25.27;41.90;101933.44;5071901;28;51475;-47
2021/07/09 09:42:44;;;;;;;;;6.25;5.75;;;;;25.26;41.88;101934.50;5070101;28;51038;-52
2021/07/09 09:45:10;;;;;;;;;11.75;9.50;;;;;25.23;41.84;101932.19;5067680;28;51237;-51
2021/07/09 09:47:37;;;;;;;;;12.75;9.00;;;;;25.21;41.49;101930.72;5061181;28;51360;-51
2021/07/09 09:50:13;;;;;;;;;9.75;7.50;;;;;25.16;41.58;101934.19;5069166;28;51003;-52
2021/07/09 09:52:40;;;;;;;;;9.75;8.00;;;;;25.11;41.75;101936.75;5073027;28;50964;-51
2021/07/09 09:55:10;;;;;;;;;8.50;7.75;;;;;25.05;41.68;101934.91;5072881;28;51471;-52
2021/07/09 09:57:37;;;;;;;;;8.50;6.75;;;;;24.98;41.53;101932.16;5068080;28;51229;-52
2021/07/09 10:00:06;;;;;;;;;7.75;7.75;;;;;24.93;41.83;101932.00;5076270;28;51330;-51
2021/07/09 10:02:31;;;;;;;;;9.50;8.00;;;;;24.86;41.61;101924.81;5076441;28;54454;-52
2021/07/09 10:04:57;;;;;;;;;5.00;5.00;;;;;24.77;41.53;101930.63;5069007;27;51827;-50
2021/07/09 10:07:23;;;;;;;;;11.25;7.50;;;;;24.68;42.17;101925.59;5073223;28;51076;-51
2021/07/09 10:09:49;;;;;;;;;7.75;7.00;;;;;24.63;41.83;101929.03;5074136;28;51298;-50
2021/07/09 10:12:18;;;;;;;;;6.75;5.25;;;;;24.62;41.91;101927.34;5069966;28;51947;-50
2021/07/09 10:14:45;;;;;;;;;8.25;5.75;;;;;24.57;42.25;101924.38;5076113;28;51112;-47
2021/07/09 10:17:13;;;;;;;;;6.25;6.25;;;;;24.55;42.09;101917.38;5074390;28;51188;-50
2021/07/09 10:19:41;;;;;;;;;6.50;5.50;;;;;24.53;42.15;101922.31;5075956;27;51300;-49
2021/07/09 10:22:07;;;;;;;;;6.75;4.25;;;;;24.48;42.04;101925.72;5052960;28;52539;-49
2021/07/09 10:24:41;;;;;;;;;7.25;7.25;;;;;24.44;42.34;101918.94;5069442;28;51409;-46
2021/07/09 10:27:08;;;;;;;;;9.00;8.50;;;;;24.35;42.39;101921.13;5068894;28;51783;-46
2021/07/09 10:29:40;;;;;;;;;10.00;8.25;;;;;24.28;42.66;101923.06;5076899;28;51224;-51
2021/07/09 10:32:07;;;;;;;;;14.50;6.50;;;;;24.22;42.42;101918.41;5073333;28;51913;-53
2021/07/09 10:34:37;;;;;;;;;10.25;8.75;;;;;24.16;42.54;101922.06;5076530;28;51087;-50
2021/07/09 10:37:20;;;;;;;;;7.75;7.50;;;;;24.08;42.89;101912.13;5075480;28;51064;-51
2021/07/09 10:40:03;;;;;;;;;7.75;6.25;;;;;24.00;43.05;101915.13;5077525;28;51247;-52
2021/07/09 10:42:31;;;;;;;;;7.25;6.50;;;;;23.96;43.09;101911.09;5057852;28;51119;-48
2021/07/09 10:45:16;;;;;;;;;7.50;5.00;;;;;23.96;42.80;101915.78;5048431;28;51008;-53
2021/07/09 10:47:43;;;;;;;;;5.00;5.00;;;;;23.94;43.00;101910.47;5074978;28;51056;-50
2021/07/09 10:50:37;;;;;;;;;8.75;8.00;;;;;23.92;43.10;101903.44;5066636;28;51162;-51
2021/07/09 10:53:07;;;;;;;;;5.25;5.25;;;;;23.90;43.10;101906.44;5073061;28;52629;-50
2021/07/09 10:55:50;;;;;;;;;8.00;6.50;;;;;23.90;43.05;101912.81;5071072;28;51028;-51
2021/07/09 10:58:17;;;;;;;;;8.50;6.50;;;;;23.89;42.89;101902.84;5058935;28;51228;-51
2021/07/09 11:01:05;;;;;;;;;8.50;7.50;;;;;23.90;42.44;101901.75;5073736;28;51546;-53
2021/07/09 11:03:37;;;;;;;;;5.25;5.25;;;;;23.92;42.62;101903.44;5068432;28;51948;-49
2021/07/09 11:06:06;;;;;;;;;5.50;5.50;;;;;23.92;42.89;101897.91;5075286;28;51299;-50
2021/07/09 11:08:34;;;;;;;;;7.00;6.75;;;;;23.92;42.94;101896.00;5076174;28;50972;-52
2021/07/09 11:11:08;;;;;;;;;8.50;8.50;;;;;23.95;43.08;101883.63;5076273;28;51236;-50
2021/07/09 11:13:39;;;;;;;;;12.25;9.00;;;;;23.96;43.32;101888.94;5069571;28;52862;-50
2021/07/09 11:16:32;;;;;;;;;11.00;8.00;;;;;23.98;43.20;101891.50;5075851;28;51487;-47
2021/07/09 11:19:04;;;;;;;;;8.00;8.00;;;;;24.00;42.65;101873.63;5065734;28;51235;-48
2021/07/09 11:21:29;;;;;;;;;8.75;7.00;;;;;23.99;42.61;101874.69;5075922;28;51058;-48
2021/07/09 11:23:54;;;;;;;;;12.50;8.50;;;;;23.97;43.02;101867.66;5068588;28;51806;-53